createdAt,value
2018-07-26T00:00:48.751Z,999.49
2018-07-26T00:01:48.749Z,999.49
2018-07-26T00:02:48.749Z,999.48
2018-07-26T00:03:48.747Z,999.52
2018-07-26T00:04:48.747Z,999.48
2018-07-26T00:05:48.747Z,999.50
2018-07-26T00:06:48.746Z,999.48
2018-07-26T00:07:48.745Z,999.47
2018-07-26T00:08:48.744Z,999.49
2018-07-26T00:09:48.745Z,999.46
2018-07-26T00:10:48.745Z,999.44
2018-07-26T00:11:48.742Z,999.43
2018-07-26T00:12:48.742Z,999.40
2018-07-26T00:13:48.741Z,999.44
2018-07-26T00:14:48.743Z,999.46
2018-07-26T00:15:48.743Z,999.44
2018-07-26T00:16:48.738Z,999.45
2018-07-26T00:17:48.737Z,999.45
2018-07-26T00:18:48.737Z,999.46
2018-07-26T00:19:48.736Z,999.43
2018-07-26T00:20:48.735Z,999.45
2018-07-26T00:21:48.735Z,999.46
2018-07-26T00:22:48.748Z,999.44
2018-07-26T00:23:48.731Z,999.44
2018-07-26T00:24:48.730Z,999.45
2018-07-26T00:25:48.730Z,999.44
2018-07-26T00:26:48.729Z,999.42
2018-07-26T00:27:48.728Z,999.46
2018-07-26T00:28:48.727Z,999.45
2018-07-26T00:29:48.726Z,999.47
2018-07-26T00:30:48.728Z,999.45
2018-07-26T00:31:48.724Z,999.47
2018-07-26T00:32:48.723Z,999.48
2018-07-26T00:33:48.723Z,999.44
2018-07-26T00:34:48.721Z,999.44
2018-07-26T00:35:48.720Z,999.42
2018-07-26T00:36:48.719Z,999.43
2018-07-26T00:37:48.717Z,999.44
2018-07-26T00:38:48.717Z,999.44
2018-07-26T00:39:48.715Z,999.44
2018-07-26T00:40:48.714Z,999.44
2018-07-26T00:41:48.713Z,999.44
2018-07-26T00:42:48.713Z,999.43
2018-07-26T00:43:48.711Z,999.43
2018-07-26T00:44:48.709Z,999.45
2018-07-26T00:45:48.709Z,999.44
2018-07-26T00:46:48.708Z,999.42
2018-07-26T00:47:48.706Z,999.44
2018-07-26T00:48:48.729Z,999.46
2018-07-26T00:49:48.704Z,999.44
2018-07-26T00:50:48.703Z,999.42
2018-07-26T00:51:48.701Z,999.41
2018-07-26T00:52:48.700Z,999.38
2018-07-26T00:53:48.700Z,999.38
2018-07-26T00:54:48.698Z,999.39
2018-07-26T00:55:48.715Z,999.39
2018-07-26T00:56:48.699Z,999.33
2018-07-26T00:57:48.697Z,999.35
2018-07-26T00:58:48.693Z,999.35
2018-07-26T00:59:48.691Z,999.34
2018-07-26T01:00:48.690Z,999.37
2018-07-26T01:01:48.690Z,999.36
2018-07-26T01:02:48.688Z,999.37
2018-07-26T01:03:48.685Z,999.34
2018-07-26T01:04:48.685Z,999.33
2018-07-26T01:05:48.683Z,999.32
2018-07-26T01:06:48.682Z,999.38
2018-07-26T01:07:48.682Z,999.32
2018-07-26T01:08:48.682Z,999.35
2018-07-26T01:09:48.678Z,999.31
2018-07-26T01:10:48.679Z,999.33
2018-07-26T01:11:48.676Z,999.32
2018-07-26T01:12:48.674Z,999.31
2018-07-26T01:13:48.674Z,999.29
2018-07-26T01:14:48.672Z,999.35
2018-07-26T01:15:48.669Z,999.34
2018-07-26T01:16:48.668Z,999.32
2018-07-26T01:17:48.667Z,999.36
2018-07-26T01:18:48.666Z,999.35
2018-07-26T01:19:48.667Z,999.31
2018-07-26T01:20:48.662Z,999.41
2018-07-26T01:21:48.661Z,999.39
2018-07-26T01:22:48.660Z,999.40
2018-07-26T01:23:48.658Z,999.39
2018-07-26T01:24:48.657Z,999.42
2018-07-26T01:25:48.655Z,999.39
2018-07-26T01:26:48.656Z,999.41
2018-07-26T01:27:48.652Z,999.37
2018-07-26T01:28:48.650Z,999.38
2018-07-26T01:29:48.650Z,999.38
2018-07-26T01:30:48.649Z,999.35
2018-07-26T01:31:48.646Z,999.35
2018-07-26T01:32:48.644Z,999.35
2018-07-26T01:33:48.643Z,999.34
2018-07-26T01:34:48.642Z,999.34
2018-07-26T01:35:48.640Z,999.35
2018-07-26T01:36:48.641Z,999.38
2018-07-26T01:37:48.637Z,999.34
2018-07-26T01:38:48.636Z,999.36
2018-07-26T01:39:48.637Z,999.36
2018-07-26T01:40:48.632Z,999.37
2018-07-26T01:41:48.631Z,999.33
2018-07-26T01:42:48.629Z,999.37
2018-07-26T01:43:48.627Z,999.36
2018-07-26T01:44:48.626Z,999.35
2018-07-26T01:45:48.624Z,999.33
2018-07-26T01:46:48.623Z,999.35
2018-07-26T01:47:48.622Z,999.38
2018-07-26T01:48:48.620Z,999.37
2018-07-26T01:49:48.618Z,999.39
2018-07-26T01:50:48.617Z,999.34
2018-07-26T01:51:48.617Z,999.36
2018-07-26T01:52:48.613Z,999.33
2018-07-26T01:53:48.611Z,999.36
2018-07-26T01:54:48.610Z,999.33
2018-07-26T01:55:48.608Z,999.31
2018-07-26T01:56:48.606Z,999.33
2018-07-26T01:57:48.605Z,999.27
2018-07-26T01:58:48.604Z,999.30
2018-07-26T01:59:48.602Z,999.28
2018-07-26T02:00:48.600Z,999.28
2018-07-26T02:01:48.710Z,999.26
2018-07-26T02:02:48.600Z,999.29
2018-07-26T02:03:48.595Z,999.27
2018-07-26T02:04:48.597Z,999.26
2018-07-26T02:05:48.593Z,999.28
2018-07-26T02:06:48.591Z,999.27
2018-07-26T02:07:48.589Z,999.24
2018-07-26T02:08:48.593Z,999.22
2018-07-26T02:09:48.586Z,999.19
2018-07-26T02:10:48.584Z,999.20
2018-07-26T02:11:48.584Z,999.19
2018-07-26T02:12:48.581Z,999.14
2018-07-26T02:13:48.584Z,999.17
2018-07-26T02:14:48.578Z,999.13
2018-07-26T02:15:48.576Z,999.16
2018-07-26T02:16:48.574Z,999.16
2018-07-26T02:17:48.574Z,999.18
2018-07-26T02:18:48.572Z,999.21
2018-07-26T02:19:48.570Z,999.18
2018-07-26T02:20:48.569Z,999.22
2018-07-26T02:21:48.568Z,999.17
2018-07-26T02:22:48.566Z,999.16
2018-07-26T02:23:48.564Z,999.15
2018-07-26T02:24:48.562Z,999.15
2018-07-26T02:25:48.561Z,999.16
2018-07-26T02:26:48.560Z,999.15
2018-07-26T02:27:48.558Z,999.14
2018-07-26T02:28:48.556Z,999.15
2018-07-26T02:29:48.555Z,999.14
2018-07-26T02:30:48.555Z,999.18
2018-07-26T02:31:48.555Z,999.14
2018-07-26T02:32:48.552Z,999.10
2018-07-26T02:33:48.549Z,999.10
2018-07-26T02:34:48.551Z,999.09
2018-07-26T02:35:48.546Z,999.11
2018-07-26T02:36:48.567Z,999.11
2018-07-26T02:37:48.544Z,999.09
2018-07-26T02:38:48.543Z,999.10
2018-07-26T02:39:48.539Z,999.10
2018-07-26T02:40:48.538Z,999.10
2018-07-26T02:41:48.537Z,999.07
2018-07-26T02:42:48.535Z,999.11
2018-07-26T02:43:48.536Z,999.08
2018-07-26T02:44:48.532Z,999.13
2018-07-26T02:45:48.537Z,999.10
2018-07-26T02:46:48.530Z,999.12
2018-07-26T02:47:48.527Z,999.16
2018-07-26T02:48:48.526Z,999.17
2018-07-26T02:49:48.534Z,999.18
2018-07-26T02:50:48.523Z,999.21
2018-07-26T02:51:48.519Z,999.15
2018-07-26T02:52:48.521Z,999.16
2018-07-26T02:53:48.517Z,999.12
2018-07-26T02:54:48.519Z,999.12
2018-07-26T02:55:48.515Z,999.08
2018-07-26T02:56:48.513Z,999.13
2018-07-26T02:57:48.511Z,999.19
2018-07-26T02:58:48.509Z,999.15
2018-07-26T02:59:48.507Z,999.17
2018-07-26T03:00:48.513Z,999.18
2018-07-26T03:01:48.505Z,999.16
2018-07-26T03:02:48.503Z,999.16
2018-07-26T03:03:48.501Z,999.13
2018-07-26T03:04:48.499Z,999.14
2018-07-26T03:05:48.498Z,999.14
2018-07-26T03:06:48.500Z,999.15
2018-07-26T03:07:48.496Z,999.16
2018-07-26T03:08:48.498Z,999.17
2018-07-26T03:09:48.496Z,999.16
2018-07-26T03:10:48.497Z,999.14
2018-07-26T03:11:48.492Z,999.17
2018-07-26T03:12:48.487Z,999.13
2018-07-26T03:13:48.485Z,999.17
2018-07-26T03:14:48.483Z,999.18
2018-07-26T03:15:48.491Z,999.13
2018-07-26T03:16:48.479Z,999.16
2018-07-26T03:17:48.478Z,999.16
2018-07-26T03:18:48.476Z,999.15
2018-07-26T03:19:48.474Z,999.13
2018-07-26T03:20:48.482Z,999.17
2018-07-26T03:21:48.474Z,999.16
2018-07-26T03:22:48.469Z,999.14
2018-07-26T03:23:48.467Z,999.15
2018-07-26T03:24:48.466Z,999.15
2018-07-26T03:25:48.464Z,999.18
2018-07-26T03:26:48.463Z,999.15
2018-07-26T03:27:48.465Z,999.16
2018-07-26T03:28:48.458Z,999.16
2018-07-26T03:29:48.457Z,999.14
2018-07-26T03:30:48.462Z,999.16
2018-07-26T03:31:48.454Z,999.14
2018-07-26T03:32:48.452Z,999.16
2018-07-26T03:33:48.656Z,999.15
2018-07-26T03:34:48.449Z,999.17
2018-07-26T03:35:48.446Z,999.16
2018-07-26T03:36:48.446Z,999.15
2018-07-26T03:37:48.443Z,999.17
2018-07-26T03:38:48.447Z,999.16
2018-07-26T03:39:48.439Z,999.16
2018-07-26T03:40:48.438Z,999.19
2018-07-26T03:41:48.443Z,999.17
2018-07-26T03:42:48.435Z,999.15
2018-07-26T03:43:48.442Z,999.16
2018-07-26T03:44:48.430Z,999.12
2018-07-26T03:45:48.430Z,999.14
2018-07-26T03:46:48.430Z,999.16
2018-07-26T03:47:48.425Z,999.15
2018-07-26T03:48:48.423Z,999.15
2018-07-26T03:49:48.422Z,999.13
2018-07-26T03:50:48.622Z,999.16
2018-07-26T03:51:48.623Z,999.17
2018-07-26T03:52:48.429Z,999.15
2018-07-26T03:53:48.414Z,999.17
2018-07-26T03:54:48.412Z,999.18
2018-07-26T03:55:48.414Z,999.20
2018-07-26T03:56:48.408Z,999.17
2018-07-26T03:57:48.420Z,999.18
2018-07-26T03:58:48.404Z,999.16
2018-07-26T03:59:48.407Z,999.21
2018-07-26T04:00:48.401Z,999.22
2018-07-26T04:01:48.398Z,999.19
2018-07-26T04:02:48.399Z,999.18
2018-07-26T04:03:48.400Z,999.22
2018-07-26T04:04:48.395Z,999.18
2018-07-26T04:05:48.390Z,999.19
2018-07-26T04:06:48.396Z,999.17
2018-07-26T04:07:48.387Z,999.17
2018-07-26T04:08:48.388Z,999.20
2018-07-26T04:09:48.383Z,999.15
2018-07-26T04:10:48.381Z,999.17
2018-07-26T04:11:48.378Z,999.20
2018-07-26T04:12:48.376Z,999.18
2018-07-26T04:13:48.378Z,999.17
2018-07-26T04:14:48.373Z,999.18
2018-07-26T04:15:48.377Z,999.17
2018-07-26T04:16:48.368Z,999.18
2018-07-26T04:17:48.367Z,999.20
2018-07-26T04:18:48.365Z,999.19
2018-07-26T04:19:48.408Z,999.19
2018-07-26T04:20:48.361Z,999.16
2018-07-26T04:21:48.359Z,999.18
2018-07-26T04:22:48.362Z,999.19
2018-07-26T04:23:48.357Z,999.17
2018-07-26T04:24:48.354Z,999.17
2018-07-26T04:25:48.352Z,999.15
2018-07-26T04:26:48.349Z,999.14
2018-07-26T04:27:48.346Z,999.14
2018-07-26T04:28:48.346Z,999.16
2018-07-26T04:29:48.342Z,999.17
2018-07-26T04:30:48.341Z,999.16
2018-07-26T04:31:48.349Z,999.15
2018-07-26T04:32:48.336Z,999.16
2018-07-26T04:33:48.536Z,999.13
2018-07-26T04:34:48.332Z,999.14
2018-07-26T04:35:48.336Z,999.16
2018-07-26T04:36:48.328Z,999.14
2018-07-26T04:37:48.327Z,999.14
2018-07-26T04:38:48.326Z,999.11
2018-07-26T04:39:48.322Z,999.11
2018-07-26T04:40:48.327Z,999.13
2018-07-26T04:41:48.520Z,999.11
2018-07-26T04:42:48.318Z,999.07
2018-07-26T04:43:48.314Z,999.08
2018-07-26T04:44:48.315Z,999.09
2018-07-26T04:45:48.313Z,999.10
2018-07-26T04:46:48.313Z,999.08
2018-07-26T04:47:48.310Z,999.07
2018-07-26T04:48:48.314Z,999.06
2018-07-26T04:49:48.303Z,999.09
2018-07-26T04:50:48.307Z,999.11
2018-07-26T04:51:48.304Z,999.10
2018-07-26T04:52:48.403Z,999.12
2018-07-26T04:53:48.296Z,999.11
2018-07-26T04:54:48.301Z,999.11
2018-07-26T04:55:48.293Z,999.13
2018-07-26T04:56:48.292Z,999.16
2018-07-26T04:57:48.291Z,999.15
2018-07-26T04:58:48.292Z,999.11
2018-07-26T04:59:48.288Z,999.13
2018-07-26T05:00:48.282Z,999.13
2018-07-26T05:01:48.281Z,999.14
2018-07-26T05:02:48.280Z,999.19
2018-07-26T05:03:48.276Z,999.20
2018-07-26T05:04:48.275Z,999.17
2018-07-26T05:05:48.287Z,999.16
2018-07-26T05:06:48.274Z,999.18
2018-07-26T05:07:48.270Z,999.18
2018-07-26T05:08:48.269Z,999.17
2018-07-26T05:09:48.272Z,999.16
2018-07-26T05:10:48.266Z,999.18
2018-07-26T05:11:48.471Z,999.14
2018-07-26T05:12:48.262Z,999.15
2018-07-26T05:13:48.462Z,999.13
2018-07-26T05:14:48.270Z,999.11
2018-07-26T05:15:48.257Z,999.13
2018-07-26T05:16:48.255Z,999.14
2018-07-26T05:17:48.255Z,999.12
2018-07-26T05:18:48.254Z,999.15
2018-07-26T05:19:48.255Z,999.13
2018-07-26T05:20:48.256Z,999.09
2018-07-26T05:21:48.249Z,999.08
2018-07-26T05:22:48.252Z,999.09
2018-07-26T05:23:48.247Z,999.08
2018-07-26T05:24:48.244Z,999.09
2018-07-26T05:25:48.243Z,999.10
2018-07-26T05:26:48.241Z,999.08
2018-07-26T05:27:48.275Z,999.10
2018-07-26T05:28:48.246Z,999.07
2018-07-26T05:29:48.240Z,999.09
2018-07-26T05:30:48.237Z,999.11
2018-07-26T05:31:48.264Z,999.13
2018-07-26T05:32:48.233Z,999.14
2018-07-26T05:33:48.237Z,999.12
2018-07-26T05:34:48.234Z,999.10
2018-07-26T05:35:48.229Z,999.13
2018-07-26T05:36:48.228Z,999.15
2018-07-26T05:37:48.260Z,999.15
2018-07-26T05:38:48.226Z,999.13
2018-07-26T05:39:48.430Z,999.14
2018-07-26T05:40:48.223Z,999.20
2018-07-26T05:41:48.227Z,999.23
2018-07-26T05:42:48.222Z,999.23
2018-07-26T05:43:48.223Z,999.28
2018-07-26T05:44:48.219Z,999.28
2018-07-26T05:45:48.218Z,999.24
2018-07-26T05:46:48.217Z,999.24
2018-07-26T05:47:48.216Z,999.27
2018-07-26T05:48:48.418Z,999.20
2018-07-26T05:49:48.216Z,999.20
2018-07-26T05:50:48.240Z,999.15
2018-07-26T05:51:48.212Z,999.22
2018-07-26T05:52:48.214Z,999.18
2018-07-26T05:53:48.212Z,999.19
2018-07-26T05:54:48.211Z,999.22
2018-07-26T05:55:48.208Z,999.21
2018-07-26T05:56:48.208Z,999.23
2018-07-26T05:57:48.208Z,999.25
2018-07-26T05:58:48.207Z,999.27
2018-07-26T05:59:48.205Z,999.26
2018-07-26T06:00:48.205Z,999.28
2018-07-26T06:01:48.208Z,999.29
2018-07-26T06:02:48.204Z,999.27
2018-07-26T06:03:48.204Z,999.26
2018-07-26T06:04:48.403Z,999.26
2018-07-26T06:05:48.200Z,999.26
2018-07-26T06:06:48.199Z,999.26
2018-07-26T06:07:48.200Z,999.29
2018-07-26T06:08:48.197Z,999.26
2018-07-26T06:09:48.197Z,999.29
2018-07-26T06:10:48.398Z,999.30
2018-07-26T06:11:48.198Z,999.32
2018-07-26T06:12:48.195Z,999.32
2018-07-26T06:13:48.194Z,999.32
2018-07-26T06:14:48.193Z,999.31
2018-07-26T06:15:48.193Z,999.33
2018-07-26T06:16:48.192Z,999.33
2018-07-26T06:17:48.192Z,999.34
2018-07-26T06:18:48.191Z,999.34
2018-07-26T06:19:48.190Z,999.34
2018-07-26T06:20:48.192Z,999.32
2018-07-26T06:21:48.193Z,999.37
2018-07-26T06:22:48.190Z,999.36
2018-07-26T06:23:48.191Z,999.36
2018-07-26T06:24:48.191Z,999.36
2018-07-26T06:25:48.193Z,999.39
2018-07-26T06:26:48.190Z,999.40
2018-07-26T06:27:48.399Z,999.36
2018-07-26T06:28:48.187Z,999.38
2018-07-26T06:29:48.188Z,999.37
2018-07-26T06:30:48.189Z,999.38
2018-07-26T06:31:48.187Z,999.40
2018-07-26T06:32:48.188Z,999.34
2018-07-26T06:33:48.328Z,999.35
2018-07-26T06:34:48.187Z,999.31
2018-07-26T06:35:48.186Z,999.33
2018-07-26T06:36:48.186Z,999.33
2018-07-26T06:37:48.192Z,999.30
2018-07-26T06:38:48.187Z,999.28
2018-07-26T06:39:48.391Z,999.26
2018-07-26T06:40:48.188Z,999.28
2018-07-26T06:41:48.188Z,999.26
2018-07-26T06:42:48.189Z,999.26
2018-07-26T06:43:48.190Z,999.27
2018-07-26T06:44:48.187Z,999.27
2018-07-26T06:45:48.188Z,999.31
2018-07-26T06:46:48.189Z,999.32
2018-07-26T06:47:48.189Z,999.35
2018-07-26T06:48:48.198Z,999.38
2018-07-26T06:49:48.193Z,999.38
2018-07-26T06:50:48.195Z,999.39
2018-07-26T06:51:48.191Z,999.44
2018-07-26T06:52:48.192Z,999.42
2018-07-26T06:53:48.193Z,999.43
2018-07-26T06:54:48.199Z,999.38
2018-07-26T06:55:48.195Z,999.35
2018-07-26T06:56:48.196Z,999.38
2018-07-26T06:57:48.201Z,999.40
2018-07-26T06:58:48.198Z,999.42
2018-07-26T06:59:48.206Z,999.42
2018-07-26T07:00:48.263Z,999.45
2018-07-26T07:01:48.207Z,999.43
2018-07-26T07:02:48.209Z,999.47
2018-07-26T07:03:48.208Z,999.43
2018-07-26T07:04:48.211Z,999.39
2018-07-26T07:05:48.207Z,999.40
2018-07-26T07:06:48.209Z,999.41
2018-07-26T07:07:48.210Z,999.42
2018-07-26T07:08:48.216Z,999.36
2018-07-26T07:09:48.215Z,999.37
2018-07-26T07:10:48.421Z,999.38
2018-07-26T07:11:48.422Z,999.37
2018-07-26T07:12:48.222Z,999.39
2018-07-26T07:13:48.222Z,999.40
2018-07-26T07:14:48.224Z,999.38
2018-07-26T07:15:48.428Z,999.39
2018-07-26T07:16:48.230Z,999.39
2018-07-26T07:17:48.231Z,999.41
2018-07-26T07:18:48.237Z,999.41
2018-07-26T07:19:48.237Z,999.43
2018-07-26T07:20:48.240Z,999.41
2018-07-26T07:21:48.244Z,999.44
2018-07-26T07:22:48.252Z,999.41
2018-07-26T07:23:48.250Z,999.44
2018-07-26T07:24:48.253Z,999.43
2018-07-26T07:25:48.257Z,999.41
2018-07-26T07:26:48.268Z,999.42
2018-07-26T07:27:48.286Z,999.41
2018-07-26T07:28:48.275Z,999.40
2018-07-26T07:29:48.279Z,999.40
2018-07-26T07:30:48.286Z,999.39
2018-07-26T07:31:48.497Z,999.41
2018-07-26T07:32:48.302Z,999.40
2018-07-26T07:33:48.308Z,999.43
2018-07-26T07:34:48.315Z,999.44
2018-07-26T07:35:48.330Z,999.45
2018-07-26T07:36:48.337Z,999.45
2018-07-26T07:37:48.339Z,999.47
2018-07-26T07:38:48.349Z,999.45
2018-07-26T07:39:48.357Z,999.42
2018-07-26T07:40:48.365Z,999.44
2018-07-26T07:41:48.426Z,999.42
2018-07-26T07:42:48.384Z,999.45
2018-07-26T07:43:48.596Z,999.42
2018-07-26T07:44:48.407Z,999.45
2018-07-26T07:45:48.414Z,999.40
2018-07-26T07:46:48.426Z,999.42
2018-07-26T07:47:48.439Z,999.44
2018-07-26T07:48:48.450Z,999.43
2018-07-26T07:49:48.658Z,999.42
2018-07-26T07:50:48.467Z,999.40
2018-07-26T07:51:48.476Z,999.41
2018-07-26T07:52:48.508Z,999.47
2018-07-26T07:53:48.503Z,999.44
2018-07-26T07:54:48.512Z,999.47
2018-07-26T07:55:48.520Z,999.44
2018-07-26T07:56:48.541Z,999.42
2018-07-26T07:57:48.549Z,999.43
2018-07-26T07:58:48.554Z,999.39
2018-07-26T07:59:48.638Z,999.42
2018-07-26T08:00:48.580Z,999.45
2018-07-26T08:01:48.591Z,999.42
2018-07-26T08:02:48.603Z,999.42
2018-07-26T08:03:48.616Z,999.43
2018-07-26T08:04:48.633Z,999.45
2018-07-26T08:05:48.642Z,999.47
2018-07-26T08:06:48.680Z,999.42
2018-07-26T08:07:48.670Z,999.44
2018-07-26T08:08:48.683Z,999.47
2018-07-26T08:09:48.693Z,999.44
2018-07-26T08:10:48.710Z,999.46
2018-07-26T08:11:48.719Z,999.47
2018-07-26T08:12:48.737Z,999.47
2018-07-26T08:13:48.747Z,999.44
2018-07-26T08:14:48.761Z,999.43
2018-07-26T08:15:48.774Z,999.49
2018-07-26T08:16:48.790Z,999.49
2018-07-26T08:17:49.212Z,999.52
2018-07-26T08:18:48.821Z,999.53
2018-07-26T08:19:48.835Z,999.46
2018-07-26T08:20:48.844Z,999.49
2018-07-26T08:21:49.065Z,999.47
2018-07-26T08:22:48.873Z,999.47
2018-07-26T08:23:48.887Z,999.51
2018-07-26T08:24:48.901Z,999.52
2018-07-26T08:25:48.916Z,999.46
2018-07-26T08:26:48.931Z,999.49
2018-07-26T08:27:48.949Z,999.47
2018-07-26T08:28:48.960Z,999.46
2018-07-26T08:29:48.977Z,999.49
2018-07-26T08:30:49.193Z,999.48
2018-07-26T08:31:49.005Z,999.54
2018-07-26T08:32:49.020Z,999.48
2018-07-26T08:33:49.035Z,999.49
2018-07-26T08:34:49.051Z,999.48
2018-07-26T08:35:49.065Z,999.49
2018-07-26T08:36:49.085Z,999.51
2018-07-26T08:37:49.096Z,999.50
2018-07-26T08:38:49.116Z,999.48
2018-07-26T08:39:49.128Z,999.48
2018-07-26T08:40:49.149Z,999.47
2018-07-26T08:41:49.162Z,999.50
2018-07-26T08:42:49.178Z,999.48
2018-07-26T08:43:49.194Z,999.49
2018-07-26T08:44:49.212Z,999.54
2018-07-26T08:45:49.226Z,999.51
2018-07-26T08:46:49.249Z,999.51
2018-07-26T08:47:49.465Z,999.51
2018-07-26T08:48:49.280Z,999.50
2018-07-26T08:49:49.297Z,999.52
2018-07-26T08:50:49.311Z,999.55
2018-07-26T08:51:49.330Z,999.55
2018-07-26T08:52:49.344Z,999.55
2018-07-26T08:53:49.362Z,999.51
2018-07-26T08:54:49.582Z,999.52
2018-07-26T08:55:49.396Z,999.51
2018-07-26T08:56:49.414Z,999.49
2018-07-26T08:57:49.435Z,999.51
2018-07-26T08:58:49.451Z,999.53
2018-07-26T08:59:49.467Z,999.48
2018-07-26T09:00:49.488Z,999.46
2018-07-26T09:01:49.503Z,999.47
2018-07-26T09:02:49.723Z,999.45
2018-07-26T09:03:49.538Z,999.45
2018-07-26T09:04:49.556Z,999.43
2018-07-26T09:05:49.576Z,999.44
2018-07-26T09:06:49.597Z,999.48
2018-07-26T09:07:49.615Z,999.48
2018-07-26T09:08:49.629Z,999.44
2018-07-26T09:09:49.688Z,999.48
2018-07-26T09:10:49.696Z,999.45
2018-07-26T09:11:49.687Z,999.43
2018-07-26T09:12:49.706Z,999.48
2018-07-26T09:13:49.809Z,999.40
2018-07-26T09:14:49.740Z,999.39
2018-07-26T09:15:49.761Z,999.41
2018-07-26T09:16:49.779Z,999.42
2018-07-26T09:17:49.796Z,999.40
2018-07-26T09:18:49.819Z,999.36
2018-07-26T09:19:50.016Z,999.38
2018-07-26T09:20:49.855Z,999.39
2018-07-26T09:21:49.871Z,999.39
2018-07-26T09:22:49.894Z,999.36
2018-07-26T09:23:50.111Z,999.38
2018-07-26T09:24:49.935Z,999.37
2018-07-26T09:25:49.949Z,999.37
2018-07-26T09:26:49.973Z,999.39
2018-07-26T09:27:49.987Z,999.35
2018-07-26T09:28:50.032Z,999.33
2018-07-26T09:29:50.032Z,999.30
2018-07-26T09:30:50.054Z,999.31
2018-07-26T09:31:50.070Z,999.28
2018-07-26T09:32:50.103Z,999.29
2018-07-26T09:33:50.106Z,999.28
2018-07-26T09:34:50.131Z,999.27
2018-07-26T09:35:50.147Z,999.24
2018-07-26T09:36:50.169Z,999.26
2018-07-26T09:37:50.187Z,999.27
2018-07-26T09:38:50.209Z,999.31
2018-07-26T09:39:50.229Z,999.29
2018-07-26T09:40:50.248Z,999.28
2018-07-26T09:41:50.269Z,999.30
2018-07-26T09:42:50.492Z,999.30
2018-07-26T09:43:50.354Z,999.26
2018-07-26T09:44:50.337Z,999.27
2018-07-26T09:45:50.351Z,999.27
2018-07-26T09:46:50.373Z,999.22
2018-07-26T09:47:50.399Z,999.23
2018-07-26T09:48:50.616Z,999.26
2018-07-26T09:49:50.491Z,999.29
2018-07-26T09:50:50.453Z,999.27
2018-07-26T09:51:50.474Z,999.29
2018-07-26T09:52:50.494Z,999.23
2018-07-26T09:53:50.514Z,999.22
2018-07-26T09:54:50.581Z,999.26
2018-07-26T09:55:50.561Z,999.20
2018-07-26T09:56:50.577Z,999.21
2018-07-26T09:57:50.603Z,999.19
2018-07-26T09:58:50.621Z,999.21
2018-07-26T09:59:50.642Z,999.21
2018-07-26T10:00:50.664Z,999.16
2018-07-26T10:01:50.681Z,999.16
2018-07-26T10:02:50.702Z,999.15
2018-07-26T10:03:50.726Z,999.16
2018-07-26T10:04:50.945Z,999.13
2018-07-26T10:05:50.767Z,999.19
2018-07-26T10:06:50.838Z,999.16
2018-07-26T10:07:50.805Z,999.15
2018-07-26T10:08:50.832Z,999.16
2018-07-26T10:09:50.853Z,999.16
2018-07-26T10:10:50.868Z,999.15
2018-07-26T10:11:50.889Z,999.15
2018-07-26T10:12:50.910Z,999.11
2018-07-26T10:13:50.932Z,999.08
2018-07-26T10:14:50.961Z,999.06
2018-07-26T10:16:50.995Z,999.12
2018-07-26T10:17:51.026Z,999.11
2018-07-26T10:18:51.038Z,999.12
2018-07-26T10:19:51.061Z,999.13
2018-07-26T10:20:51.081Z,999.11
2018-07-26T10:21:51.106Z,999.14
2018-07-26T10:22:51.326Z,999.07
2018-07-26T10:23:51.145Z,999.09
2018-07-26T10:24:51.166Z,999.08
2018-07-26T10:25:51.190Z,999.08
2018-07-26T10:26:51.208Z,999.07
2018-07-26T10:27:51.246Z,999.05
2018-07-26T10:28:51.250Z,999.12
2018-07-26T10:29:51.276Z,999.08
2018-07-26T10:30:51.295Z,999.06
2018-07-26T10:31:51.315Z,999.03
2018-07-26T10:32:51.336Z,999.01
2018-07-26T10:33:51.358Z,998.99
2018-07-26T10:34:51.483Z,999.07
2018-07-26T10:35:51.401Z,998.97
2018-07-26T10:36:51.422Z,999.01
2018-07-26T10:37:51.444Z,999.00
2018-07-26T10:38:51.668Z,998.99
2018-07-26T10:39:51.487Z,998.95
2018-07-26T10:40:51.507Z,998.87
2018-07-26T10:41:51.533Z,998.90
2018-07-26T10:42:51.550Z,998.92
2018-07-26T10:43:51.568Z,998.91
2018-07-26T10:44:51.589Z,998.89
2018-07-26T10:45:52.805Z,998.87
2018-07-26T10:46:51.626Z,998.86
2018-07-26T10:47:51.639Z,998.87
2018-07-26T10:48:51.655Z,998.86
2018-07-26T10:49:51.674Z,998.88
2018-07-26T10:50:51.689Z,998.88
2018-07-26T10:51:51.700Z,998.84
2018-07-26T10:52:51.715Z,998.94
2018-07-26T10:53:51.728Z,998.85
2018-07-26T10:54:51.749Z,998.85
2018-07-26T10:55:51.759Z,998.87
2018-07-26T10:56:51.774Z,998.91
2018-07-26T10:57:51.785Z,998.97
2018-07-26T10:58:51.803Z,998.95
2018-07-26T10:59:51.812Z,998.96
2018-07-26T11:00:51.833Z,998.92
2018-07-26T11:01:51.847Z,998.89
2018-07-26T11:02:51.859Z,998.81
2018-07-26T11:03:51.974Z,998.86
2018-07-26T11:04:51.891Z,998.83
2018-07-26T11:05:51.908Z,998.86
2018-07-26T11:06:51.925Z,998.86
2018-07-26T11:07:51.946Z,998.86
2018-07-26T11:08:51.961Z,998.81
2018-07-26T11:09:51.982Z,998.87
2018-07-26T11:10:51.994Z,998.88
2018-07-26T11:11:52.011Z,998.84
2018-07-26T11:12:52.030Z,998.81
2018-07-26T11:13:52.049Z,998.77
2018-07-26T11:14:52.069Z,998.84
2018-07-26T11:15:52.086Z,998.81
2018-07-26T11:16:52.106Z,998.78
2018-07-26T11:17:52.123Z,998.82
2018-07-26T11:18:52.146Z,998.80
2018-07-26T11:19:52.161Z,998.75
2018-07-26T11:20:52.181Z,998.72
2018-07-26T11:21:52.200Z,998.75
2018-07-26T11:22:52.220Z,998.75
2018-07-26T11:23:52.238Z,998.68
2018-07-26T11:24:52.261Z,998.74
2018-07-26T11:25:52.281Z,998.71
2018-07-26T11:26:52.300Z,998.70
2018-07-26T11:27:52.323Z,998.63
2018-07-26T11:28:52.545Z,998.68
2018-07-26T11:29:52.412Z,998.67
2018-07-26T11:30:52.383Z,998.66
2018-07-26T11:31:52.409Z,998.64
2018-07-26T11:32:52.420Z,998.62
2018-07-26T11:33:52.440Z,998.57
2018-07-26T11:34:52.464Z,998.58
2018-07-26T11:35:52.500Z,998.60
2018-07-26T11:36:52.502Z,998.57
2018-07-26T11:37:52.527Z,998.56
2018-07-26T11:38:52.546Z,998.60
2018-07-26T11:40:52.788Z,998.61
2018-07-26T11:41:52.607Z,998.59
2018-07-26T11:42:52.628Z,998.62
2018-07-26T11:43:52.652Z,998.57
2018-07-26T11:44:52.670Z,998.59
2018-07-26T11:45:52.695Z,998.56
2018-07-26T11:46:52.713Z,998.53
2018-07-26T11:47:52.936Z,998.47
2018-07-26T11:48:52.756Z,998.51
2018-07-26T11:49:52.781Z,998.45
2018-07-26T11:50:52.800Z,998.54
2018-07-26T11:51:52.822Z,998.52
2018-07-26T11:52:52.905Z,998.49
2018-07-26T11:53:52.865Z,998.50
2018-07-26T11:54:53.036Z,998.56
2018-07-26T11:55:53.108Z,998.53
2018-07-26T11:56:52.932Z,998.49
2018-07-26T11:57:52.952Z,998.50
2018-07-26T11:58:52.975Z,998.48
2018-07-26T11:59:52.991Z,998.45
2018-07-26T12:00:53.013Z,998.45
2018-07-26T12:01:53.035Z,998.41
2018-07-26T12:02:53.056Z,998.41
2018-07-26T12:03:53.079Z,998.40
2018-07-26T12:04:53.098Z,998.36
2018-07-26T12:05:53.120Z,998.33
2018-07-26T12:06:53.146Z,998.32
2018-07-26T12:07:53.162Z,998.25
2018-07-26T12:08:53.189Z,998.23
2018-07-26T12:09:53.208Z,998.27
2018-07-26T12:10:53.227Z,998.21
2018-07-26T12:11:53.252Z,998.22
2018-07-26T12:12:53.271Z,998.20
2018-07-26T12:13:53.295Z,998.15
2018-07-26T12:14:53.315Z,998.18
2018-07-26T12:15:53.333Z,998.16
2018-07-26T12:16:53.353Z,998.19
2018-07-26T12:17:53.368Z,998.08
2018-07-26T12:18:53.386Z,998.10
2018-07-26T12:19:53.403Z,998.13
2018-07-26T12:20:53.424Z,998.13
2018-07-26T12:21:53.436Z,998.18
2018-07-26T12:22:53.453Z,998.11
2018-07-26T12:23:53.469Z,998.16
2018-07-26T12:24:53.491Z,998.08
2018-07-26T12:25:53.497Z,998.10
2018-07-26T12:26:53.670Z,998.07
2018-07-26T12:27:53.528Z,998.10
2018-07-26T12:28:53.744Z,998.14
2018-07-26T12:29:53.557Z,998.14
2018-07-26T12:30:53.565Z,998.15